Time;durP1;ratioP1;P1;durP2;ratioP2;P2;SDS_P1;SDS_P2;PMS_P1;PMS_P2;Temp;Humidity;BMP_temperature;BMP_pressure;BME280_temperature;BME280_humidity;BME280_pressure;Samples;Min_cycle;Max_cycle;Signal;HPM_P1;HPM_P2
2023/01/20 00:02:07;;;;;;;2.60;1.75;;;3.20;90.90;;;;;;5030939;28;20045;-67
2023/01/20 00:04:32;;;;;;;6.45;2.20;;;3.20;90.90;;;;;;5031787;28;20021;-66
2023/01/20 00:06:58;;;;;;;4.45;2.55;;;3.20;90.90;;;;;;5029515;28;20164;-67
2023/01/20 00:09:23;;;;;;;5.20;2.15;;;3.10;90.90;;;;;;5028964;28;20102;-67
2023/01/20 00:11:49;;;;;;;2.65;1.58;;;3.10;90.90;;;;;;5031378;28;20099;-67
2023/01/20 00:14:15;;;;;;;1.88;1.38;;;3.10;90.90;;;;;;5028883;28;20163;-67
2023/01/20 00:16:40;;;;;;;2.08;1.13;;;3.10;90.80;;;;;;5030671;28;20100;-67
2023/01/20 00:19:06;;;;;;;2.28;1.35;;;3.00;90.80;;;;;;5029857;28;20573;-67
2023/01/20 00:21:33;;;;;;;1.45;1.10;;;3.10;90.90;;;;;;5024439;28;20033;-67
2023/01/20 00:23:59;;;;;;;6.35;2.58;;;3.10;90.90;;;;;;5022915;28;20103;-66
2023/01/20 00:26:25;;;;;;;2.03;1.55;;;3.00;90.80;;;;;;5022037;28;20096;-67
2023/01/20 00:28:56;;;;;;;5.13;2.53;;;3.00;90.90;;;;;;5027421;28;20471;-66
2023/01/20 00:31:24;;;;;;;2.83;1.90;;;2.90;90.90;;;;;;5029441;28;20387;-66
2023/01/20 00:33:51;;;;;;;2.25;1.60;;;2.90;91.00;;;;;;5032981;28;20025;-67
2023/01/20 00:36:18;;;;;;;3.83;1.98;;;3.00;91.00;;;;;;5031394;28;20071;-67
2023/01/20 00:38:44;;;;;;;3.30;2.15;;;3.00;91.00;;;;;;5025011;28;20045;-67
2023/01/20 00:41:09;;;;;;;1.45;1.25;;;3.10;91.00;;;;;;5027474;28;20025;-67
2023/01/20 00:43:35;;;;;;;4.40;1.83;;;3.10;91.00;;;;;;5025619;28;20028;-66
2023/01/20 00:46:02;;;;;;;4.63;2.25;;;3.10;90.90;;;;;;5031132;28;20498;-65
2023/01/20 00:48:27;;;;;;;5.38;2.30;;;3.10;90.90;;;;;;5031819;28;20057;-66
2023/01/20 00:50:53;;;;;;;4.55;2.22;;;3.10;90.90;;;;;;5031331;28;20029;-65
2023/01/20 00:53:19;;;;;;;7.53;3.30;;;3.20;90.90;;;;;;5026702;28;20419;-67
2023/01/20 00:55:45;;;;;;;6.20;2.67;;;3.10;90.90;;;;;;5028740;28;20037;-67
2023/01/20 00:58:10;;;;;;;6.63;2.60;;;3.20;90.90;;;;;;5029848;28;20025;-67
2023/01/20 01:00:36;;;;;;;3.90;1.98;;;3.20;90.90;;;;;;5027616;28;20029;-67
2023/01/20 01:03:02;;;;;;;5.65;2.85;;;3.20;90.90;;;;;;5026992;28;20045;-66
2023/01/20 01:05:28;;;;;;;6.32;3.40;;;3.20;90.90;;;;;;5032145;28;20018;-66
2023/01/20 01:07:53;;;;;;;5.40;3.13;;;3.20;90.90;;;;;;5028181;28;20033;-66
2023/01/20 01:10:19;;;;;;;7.43;3.58;;;3.10;90.90;;;;;;5029816;28;20021;-67
2023/01/20 01:12:45;;;;;;;9.77;4.30;;;3.00;90.90;;;;;;5029526;28;20033;-67
2023/01/20 01:15:11;;;;;;;9.63;4.15;;;3.00;90.90;;;;;;5031424;28;20676;-66
2023/01/20 01:17:36;;;;;;;9.15;3.88;;;3.00;91.00;;;;;;5031360;28;20095;-66
2023/01/20 01:20:03;;;;;;;15.30;6.40;;;3.00;91.00;;;;;;5031668;28;20026;-65
2023/01/20 01:22:31;;;;;;;9.15;4.07;;;3.00;91.00;;;;;;5029099;28;20021;-65
2023/01/20 01:24:56;;;;;;;11.30;4.30;;;2.90;91.10;;;;;;5029718;28;20049;-66
2023/01/20 01:27:22;;;;;;;10.32;3.50;;;2.90;91.10;;;;;;5031311;28;20064;-67
2023/01/20 01:29:47;;;;;;;7.32;3.80;;;3.00;91.10;;;;;;5031742;28;20036;-66
2023/01/20 01:32:13;;;;;;;7.82;3.55;;;2.90;91.10;;;;;;5029749;28;20124;-66
2023/01/20 01:34:38;;;;;;;5.97;2.25;;;2.90;91.10;;;;;;5029717;28;20534;-66
2023/01/20 01:37:04;;;;;;;5.28;2.58;;;3.00;91.10;;;;;;5029012;28;20040;-66
2023/01/20 01:39:29;;;;;;;4.85;2.35;;;3.00;91.10;;;;;;5029720;28;20113;-66
2023/01/20 01:41:55;;;;;;;2.22;1.35;;;3.10;91.10;;;;;;5028497;28;20104;-66
2023/01/20 01:44:21;;;;;;;6.10;3.28;;;3.10;91.10;;;;;;5030945;28;20037;-66
2023/01/20 01:46:46;;;;;;;3.72;1.95;;;3.20;91.10;;;;;;5029434;28;20079;-66
2023/01/20 01:49:20;;;;;;;4.75;1.70;;;3.20;91.10;;;;;;5029343;28;20033;-66
2023/01/20 01:52:09;;;;;;;2.83;1.40;;;3.20;91.00;;;;;;5029225;28;20022;-66
2023/01/20 01:54:40;;;;;;;5.18;2.17;;;3.20;91.10;;;;;;5028397;28;20037;-65
2023/01/20 01:57:07;;;;;;;5.18;2.33;;;3.20;91.10;;;;;;5024574;28;20033;-65
2023/01/20 01:59:33;;;;;;;2.28;1.40;;;3.20;91.00;;;;;;5027686;28;20112;-66
2023/01/20 02:01:58;;;;;;;9.18;2.95;;;3.20;91.00;;;;;;5031005;28;20173;-65
2023/01/20 02:04:26;;;;;;;7.00;3.08;;;3.20;91.10;;;;;;5028146;28;20510;-66
2023/01/20 02:07:06;;;;;;;5.03;2.53;;;3.20;91.00;;;;;;5031211;28;20121;-65
2023/01/20 02:09:33;;;;;;;5.07;1.95;;;3.20;91.00;;;;;;5029560;28;20029;-66
2023/01/20 02:12:05;;;;;;;4.90;2.70;;;3.30;91.00;;;;;;5025233;28;20377;-66
2023/01/20 02:14:36;;;;;;;;;;;3.30;91.00;;;;;;5025217;28;20033;-66
2023/01/20 02:17:14;;;;;;;7.65;3.55;;;3.30;90.90;;;;;;5029975;28;19916;-66
2023/01/20 02:19:58;;;;;;;5.35;2.67;;;3.20;90.90;;;;;;5025586;28;20495;-64
2023/01/20 02:22:45;;;;;;;5.97;2.63;;;3.20;90.90;;;;;;5027478;28;20113;-66
2023/01/20 02:25:35;;;;;;;3.85;1.98;;;3.20;90.90;;;;;;5030644;28;20037;-66
2023/01/20 02:28:19;;;;;;;6.15;2.40;;;3.20;91.00;;;;;;5026579;28;20179;-66
2023/01/20 02:31:22;;;;;;;4.40;2.30;;;3.20;90.90;;;;;;5030015;28;20496;-66
2023/01/20 02:33:59;;;;;;;11.40;3.83;;;3.20;91.00;;;;;;5027962;28;20057;-64
2023/01/20 02:36:32;;;;;;;10.65;4.20;;;3.20;90.90;;;;;;5032131;28;20035;-65
2023/01/20 02:39:03;;;;;;;;;;;3.10;90.90;;;;;;5028492;28;20091;-65
2023/01/20 02:41:36;;;;;;;7.95;3.45;;;3.10;90.90;;;;;;5029679;28;19909;-66
2023/01/20 02:44:07;;;;;;;7.10;2.85;;;3.10;90.90;;;;;;5026717;28;20029;-66
2023/01/20 02:46:49;;;;;;;4.90;2.67;;;3.10;91.00;;;;;;5029724;28;20021;-66
2023/01/20 02:49:26;;;;;;;4.15;2.05;;;3.20;91.00;;;;;;5029611;28;20013;-65
2023/01/20 02:52:00;;;;;;;3.42;1.85;;;3.20;91.00;;;;;;5029957;28;20586;-67
2023/01/20 02:54:30;;;;;;;4.88;2.00;;;3.30;90.90;;;;;;5025322;28;20437;-67
2023/01/20 02:56:58;;;;;;;4.28;2.33;;;3.20;90.80;;;;;;5029883;28;20040;-67
2023/01/20 02:59:29;;;;;;;5.18;1.83;;;3.30;90.90;;;;;;5029796;28;20017;-66
2023/01/20 03:02:01;;;;;;;4.07;2.08;;;3.30;90.90;;;;;;5027857;28;20108;-67
2023/01/20 03:04:32;;;;;;;4.22;2.22;;;3.30;90.80;;;;;;5021355;28;20102;-65
2023/01/20 03:07:00;;;;;;;7.03;3.00;;;3.30;90.80;;;;;;5023416;28;20022;-66
2023/01/20 03:09:43;;;;;;;5.53;3.08;;;3.30;90.90;;;;;;5022321;28;20079;-65
2023/01/20 03:12:21;;;;;;;5.85;2.33;;;3.20;90.80;;;;;;5032568;28;20032;-66
2023/01/20 03:14:47;;;;;;;2.88;1.80;;;3.20;90.90;;;;;;5031089;28;20644;-65
2023/01/20 03:17:13;;;;;;;3.40;1.80;;;3.20;90.90;;;;;;5028766;28;20400;-66
2023/01/20 03:19:38;;;;;;;7.53;2.85;;;3.20;90.90;;;;;;5030021;28;20020;-66
2023/01/20 03:22:04;;;;;;;10.50;4.00;;;3.20;90.90;;;;;;5021392;28;20388;-65
2023/01/20 03:24:32;;;;;;;8.60;3.78;;;3.20;90.80;;;;;;5025365;28;20029;-67
2023/01/20 03:26:58;;;;;;;7.93;3.13;;;3.10;90.90;;;;;;5025047;28;20096;-66
2023/01/20 03:29:24;;;;;;;7.05;3.15;;;3.10;90.90;;;;;;5028869;28;20044;-67
2023/01/20 03:31:55;;;;;;;8.27;4.45;;;3.10;90.90;;;;;;5020727;28;20017;-67
2023/01/20 03:34:23;;;;;;;11.50;4.63;;;3.00;90.90;;;;;;5023216;28;20029;-66
2023/01/20 03:36:50;;;;;;;7.82;2.53;;;3.00;91.00;;;;;;5023994;28;20069;-67
2023/01/20 03:39:17;;;;;;;6.75;2.80;;;3.00;91.00;;;;;;5023610;28;20033;-66
2023/01/20 03:41:58;;;;;;;3.85;2.15;;;3.00;91.00;;;;;;5027355;28;20028;-66
2023/01/20 03:44:45;;;;;;;6.63;2.65;;;3.00;91.00;;;;;;5027654;28;20025;-67
2023/01/20 03:47:33;;;;;;;8.55;3.83;;;3.10;91.00;;;;;;5028888;28;20025;-66
2023/01/20 03:50:28;;;;;;;16.70;6.30;;;3.10;91.00;;;;;;5029167;28;20503;-67
2023/01/20 03:53:05;;;;;;;12.20;4.78;;;3.00;91.00;;;;;;5027870;28;20033;-67
2023/01/20 03:55:38;;;;;;;12.68;4.82;;;2.90;90.90;;;;;;5027517;28;20652;-66
2023/01/20 03:58:11;;;;;;;20.33;7.22;;;2.90;91.00;;;;;;5018799;28;20026;-66
2023/01/20 04:00:42;;;;;;;12.02;4.85;;;2.70;91.00;;;;;;5027885;28;20506;-66
2023/01/20 04:03:15;;;;;;;18.98;6.82;;;2.70;91.10;;;;;;5029006;28;20033;-67
2023/01/20 04:05:43;;;;;;;13.02;4.60;;;2.70;91.10;;;;;;5029001;28;20056;-66
2023/01/20 04:08:11;;;;;;;11.07;4.30;;;2.70;91.20;;;;;;5026703;28;20029;-67
2023/01/20 04:10:40;;;;;;;13.75;5.63;;;2.70;91.20;;;;;;5028611;28;20049;-66
2023/01/20 04:13:06;;;;;;;9.88;3.60;;;2.70;91.20;;;;;;5031308;28;20055;-67
2023/01/20 04:15:36;;;;;;;4.20;2.80;;;2.80;91.20;;;;;;5023509;28;20041;-67
2023/01/20 04:18:22;;;;;;;14.93;4.47;;;2.80;91.50;;;;;;5022989;28;20080;-66
2023/01/20 04:20:55;;;;;;;14.10;5.60;;;2.80;91.20;;;;;;5031411;28;20033;-66
2023/01/20 04:23:27;;;;;;;6.82;3.45;;;2.80;91.10;;;;;;5035960;28;20026;-66
2023/01/20 04:25:52;;;;;;;12.63;3.92;;;2.70;91.20;;;;;;5030995;28;20111;-67
2023/01/20 04:28:18;;;;;;;9.75;4.70;;;2.70;91.20;;;;;;5032975;28;20073;-67
2023/01/20 04:30:43;;;;;;;13.48;4.40;;;2.80;91.20;;;;;;5036318;28;20030;-66
2023/01/20 04:33:09;;;;;;;8.27;3.33;;;2.80;91.20;;;;;;5029248;28;20033;-66
2023/01/20 04:35:35;;;;;;;6.03;2.22;;;2.80;91.20;;;;;;5037542;28;20574;-67
2023/01/20 04:38:00;;;;;;;6.68;3.30;;;2.90;91.20;;;;;;5031034;28;20029;-65
2023/01/20 04:40:26;;;;;;;21.50;6.68;;;2.90;91.20;;;;;;5032125;28;20519;-65
2023/01/20 04:42:52;;;;;;;11.38;4.60;;;2.90;91.20;;;;;;5033963;28;20092;-66
2023/01/20 04:45:17;;;;;;;19.05;7.15;;;2.90;91.20;;;;;;5034075;28;20025;-67
2023/01/20 04:47:43;;;;;;;16.38;5.38;;;2.80;91.10;;;;;;5030110;28;20108;-67
2023/01/20 04:50:10;;;;;;;14.65;5.70;;;2.70;91.10;;;;;;5031312;28;20185;-67
2023/01/20 04:52:36;;;;;;;11.38;3.90;;;2.70;91.20;;;;;;5030064;28;20025;-67
2023/01/20 04:55:02;;;;;;;14.95;7.05;;;2.80;91.20;;;;;;5032090;28;20037;-67
2023/01/20 04:57:27;;;;;;;26.40;9.68;;;2.80;91.20;;;;;;5029708;28;20021;-67
2023/01/20 04:59:53;;;;;;;21.73;6.70;;;2.60;91.10;;;;;;5031880;28;20430;-66
2023/01/20 05:02:18;;;;;;;12.43;5.30;;;2.60;91.20;;;;;;5043271;28;20389;-66
2023/01/20 05:04:44;;;;;;;11.70;4.68;;;2.60;91.30;;;;;;5032396;28;21687;-67
2023/01/20 05:07:10;;;;;;;22.13;6.90;;;2.70;91.30;;;;;;5030374;28;20384;-67
2023/01/20 05:09:36;;;;;;;19.33;6.35;;;2.70;91.20;;;;;;5031711;28;20717;-67
2023/01/20 05:12:01;;;;;;;11.25;4.57;;;2.60;91.20;;;;;;5031147;28;20033;-65
2023/01/20 05:14:27;;;;;;;14.23;6.07;;;2.60;91.20;;;;;;5033538;28;20492;-65
2023/01/20 05:16:53;;;;;;;24.95;7.75;;;2.60;91.20;;;;;;5029846;28;20022;-67
2023/01/20 05:19:18;;;;;;;18.10;5.80;;;2.60;91.30;;;;;;5027923;28;20033;-67
2023/01/20 05:21:44;;;;;;;11.73;4.82;;;2.60;91.30;;;;;;5030447;28;20033;-67
2023/01/20 05:24:09;;;;;;;10.20;4.53;;;2.60;91.30;;;;;;5028896;28;20026;-66
2023/01/20 05:26:35;;;;;;;15.48;5.95;;;2.60;91.40;;;;;;5029993;28;20332;-66
2023/01/20 05:29:01;;;;;;;27.50;7.55;;;2.60;91.40;;;;;;5031664;28;20037;-67
2023/01/20 05:31:27;;;;;;;15.75;5.82;;;2.70;91.40;;;;;;5028194;28;20029;-68
2023/01/20 05:33:53;;;;;;;11.43;4.15;;;2.60;91.40;;;;;;5030121;28;20021;-66
2023/01/20 05:36:19;;;;;;;8.85;3.30;;;2.70;91.30;;;;;;5029884;28;20033;-67
2023/01/20 05:38:44;;;;;;;27.13;7.40;;;2.80;91.30;;;;;;5028366;28;20030;-65
2023/01/20 05:41:10;;;;;;;13.60;4.95;;;2.80;91.30;;;;;;5029877;28;20026;-66
2023/01/20 05:43:36;;;;;;;17.90;6.88;;;2.70;91.20;;;;;;5030608;28;20037;-66
2023/01/20 05:46:02;;;;;;;25.52;8.70;;;2.70;91.20;;;;;;5029654;28;20028;-67
2023/01/20 05:48:28;;;;;;;13.90;5.45;;;2.60;91.30;;;;;;5027445;28;20021;-67
2023/01/20 05:50:53;;;;;;;15.10;6.35;;;2.60;91.30;;;;;;5029768;28;20522;-67
2023/01/20 05:53:19;;;;;;;17.10;5.45;;;2.50;91.30;;;;;;5029090;28;20526;-66
2023/01/20 05:55:44;;;;;;;13.48;5.28;;;2.50;91.40;;;;;;5028126;28;20029;-67
2023/01/20 05:58:10;;;;;;;22.50;6.60;;;2.60;91.40;;;;;;5028868;28;20029;-67
2023/01/20 06:00:36;;;;;;;18.40;6.57;;;2.50;91.40;;;;;;5022897;28;20033;-67
2023/01/20 06:03:02;;;;;;;12.32;4.57;;;2.50;91.40;;;;;;5025236;28;20021;-67
2023/01/20 06:05:28;;;;;;;11.55;4.32;;;2.50;91.40;;;;;;5025273;28;20053;-66
2023/01/20 06:07:54;;;;;;;14.70;5.47;;;2.60;91.70;;;;;;5028060;28;20029;-66
2023/01/20 06:10:20;;;;;;;10.02;3.70;;;2.70;91.40;;;;;;5027079;28;20044;-66
2023/01/20 06:12:51;;;;;;;14.10;5.32;;;2.60;91.30;;;;;;5028736;28;20034;-65
2023/01/20 06:15:17;;;;;;;14.68;5.57;;;2.60;91.40;;;;;;5026229;28;20080;-67
2023/01/20 06:17:42;;;;;;;16.42;5.55;;;2.60;91.40;;;;;;5029614;28;20037;-67
2023/01/20 06:20:09;;;;;;;8.55;3.80;;;2.60;91.40;;;;;;5030137;28;20052;-66
2023/01/20 06:22:35;;;;;;;15.73;6.38;;;2.60;91.40;;;;;;5025475;28;20025;-65
2023/01/20 06:25:00;;;;;;;19.08;7.32;;;2.60;91.40;;;;;;5026892;28;20022;-66
2023/01/20 06:27:26;;;;;;;13.55;5.47;;;2.60;91.40;;;;;;5029940;28;20018;-65
2023/01/20 06:29:52;;;;;;;21.02;6.75;;;2.50;91.40;;;;;;5029360;28;20057;-65
2023/01/20 06:32:17;;;;;;;9.85;4.72;;;2.60;91.40;;;;;;5024940;28;20060;-66
2023/01/20 06:34:43;;;;;;;11.00;4.50;;;2.50;91.40;;;;;;5024889;28;20044;-65
2023/01/20 06:37:08;;;;;;;17.98;5.03;;;2.60;91.40;;;;;;5022274;28;20021;-67
2023/01/20 06:39:34;;;;;;;18.95;5.93;;;2.60;91.30;;;;;;5027315;28;20524;-67
2023/01/20 06:42:00;;;;;;;14.20;5.50;;;2.60;91.40;;;;;;5018539;28;20492;-67
2023/01/20 06:44:26;;;;;;;17.25;6.03;;;2.50;91.30;;;;;;5026042;28;20021;-66
2023/01/20 06:46:51;;;;;;;18.77;7.63;;;2.50;91.40;;;;;;5019215;28;20095;-65
2023/01/20 06:49:17;;;;;;;21.02;7.55;;;2.50;91.30;;;;;;5026445;28;20690;-67
2023/01/20 06:51:43;;;;;;;21.80;6.88;;;2.40;91.30;;;;;;5024544;28;20022;-67
2023/01/20 06:54:08;;;;;;;13.73;5.03;;;2.40;91.40;;;;;;5024595;28;20408;-67
2023/01/20 06:56:34;;;;;;;9.15;4.18;;;2.40;91.40;;;;;;5030683;28;20511;-67
2023/01/20 06:59:00;;;;;;;13.90;5.25;;;2.50;91.40;;;;;;5028315;28;20018;-68
2023/01/20 07:01:28;;;;;;;17.60;6.32;;;2.50;91.40;;;;;;5031483;28;20025;-68
2023/01/20 07:03:54;;;;;;;15.48;5.43;;;2.50;91.40;;;;;;5025747;28;21514;-66
2023/01/20 07:06:27;;;;;;;10.82;3.60;;;2.50;91.40;;;;;;5033137;28;20014;-67
2023/01/20 07:08:53;;;;;;;9.13;3.72;;;2.50;91.40;;;;;;5026311;28;20442;-66
2023/01/20 07:11:18;;;;;;;15.25;5.60;;;2.60;91.40;;;;;;5035686;28;20025;-67
2023/01/20 07:13:44;;;;;;;9.80;4.35;;;2.60;91.40;;;;;;5021728;28;20721;-68
2023/01/20 07:16:10;;;;;;;16.90;6.10;;;2.60;91.40;;;;;;5021525;28;20037;-68
2023/01/20 07:18:53;;;;;;;11.32;4.47;;;2.60;91.40;;;;;;5000518;28;20049;-66
2023/01/20 07:21:20;;;;;;;18.52;6.18;;;2.60;91.40;;;;;;5027577;28;20120;-66
2023/01/20 07:23:46;;;;;;;19.27;7.32;;;2.60;91.40;;;;;;5026806;28;20075;-66
2023/01/20 07:26:14;;;;;;;15.35;5.80;;;2.50;91.40;;;;;;5030126;28;20030;-67
2023/01/20 07:28:40;;;;;;;20.23;6.65;;;2.50;91.50;;;;;;5023434;28;20102;-66
2023/01/20 07:31:17;;;;;;;26.75;9.05;;;2.40;91.40;;;;;;5025223;28;20033;-66
2023/01/20 07:33:43;;;;;;;22.58;8.95;;;2.40;91.50;;;;;;5022318;28;20030;-67
2023/01/20 07:36:10;;;;;;;18.83;7.00;;;2.40;91.50;;;;;;5020019;28;20200;-68
2023/01/20 07:38:36;;;;;;;22.13;7.10;;;2.40;91.60;;;;;;5019397;28;20099;-67
2023/01/20 07:41:04;;;;;;;20.35;7.28;;;2.40;91.60;;;;;;5022078;28;20479;-66
2023/01/20 07:43:30;;;;;;;23.80;8.60;;;2.50;91.60;;;;;;5025871;28;20054;-67
2023/01/20 07:45:57;;;;;;;18.10;7.57;;;2.50;91.60;;;;;;5023723;28;20045;-66
2023/01/20 07:48:24;;;;;;;11.52;5.57;;;2.50;91.60;;;;;;5027309;28;20025;-66
2023/01/20 07:51:00;;;;;;;21.48;6.78;;;2.50;91.60;;;;;;5021423;28;20045;-68
2023/01/20 07:53:26;;;;;;;16.52;6.68;;;2.50;91.60;;;;;;5020551;28;20029;-66
2023/01/20 07:55:52;;;;;;;14.18;5.90;;;2.60;91.60;;;;;;5028570;28;20056;-67
2023/01/20 07:58:18;;;;;;;16.25;6.38;;;2.60;91.60;;;;;;5021520;28;20065;-68
2023/01/20 08:00:47;;;;;;;14.45;5.13;;;2.60;91.50;;;;;;5023912;28;20038;-67
2023/01/20 08:03:13;;;;;;;18.30;5.82;;;2.60;91.60;;;;;;5030070;28;20025;-68
2023/01/20 08:05:39;;;;;;;13.95;5.78;;;2.60;91.50;;;;;;5023346;28;20018;-68
2023/01/20 08:08:04;;;;;;;9.68;4.20;;;2.70;91.50;;;;;;5039726;28;20029;-68
2023/01/20 08:10:30;;;;;;;14.07;5.68;;;2.70;91.50;;;;;;5023485;28;20061;-67
2023/01/20 08:12:57;;;;;;;21.73;8.45;;;2.80;91.40;;;;;;5023947;28;20033;-67
2023/01/20 08:15:23;;;;;;;23.58;8.00;;;2.70;91.40;;;;;;5021050;28;20048;-67
2023/01/20 08:17:55;;;;;;;12.52;4.90;;;2.60;91.40;;;;;;5020610;28;20536;-66
2023/01/20 08:20:21;;;;;;;;;;;2.60;91.40;;;;;;5024986;28;20021;-68
2023/01/20 08:22:46;;;;;;;18.48;7.00;;;2.70;91.40;;;;;;5018049;28;20704;-67
2023/01/20 08:25:12;;;;;;;17.15;6.13;;;2.70;91.40;;;;;;5023679;28;20026;-65
2023/01/20 08:27:37;;;;;;;17.02;5.72;;;2.70;91.40;;;;;;5031577;28;20105;-68
2023/01/20 08:30:04;;;;;;;16.02;4.95;;;2.70;91.40;;;;;;5023499;28;20026;-66
2023/01/20 08:32:29;;;;;;;16.85;6.05;;;2.70;91.40;;;;;;5029601;28;20099;-67
2023/01/20 08:34:55;;;;;;;12.77;5.22;;;2.70;91.40;;;;;;5021523;28;20021;-68
2023/01/20 08:37:21;;;;;;;17.88;6.28;;;2.70;91.40;;;;;;5023275;28;20538;-65
2023/01/20 08:39:46;;;;;;;15.48;5.72;;;2.70;91.50;;;;;;5025524;28;20036;-67
2023/01/20 08:42:12;;;;;;;7.03;3.30;;;2.70;91.50;;;;;;5023857;28;20021;-68
2023/01/20 08:44:38;;;;;;;27.75;8.23;;;2.70;91.50;;;;;;5021501;28;20029;-65
2023/01/20 08:47:03;;;;;;;12.27;5.03;;;2.70;91.60;;;;;;5025935;28;20040;-67
2023/01/20 08:49:29;;;;;;;20.63;6.82;;;2.70;91.60;;;;;;5034195;28;20079;-66
2023/01/20 08:51:55;;;;;;;16.55;6.25;;;2.70;91.60;;;;;;5034137;28;20139;-67
2023/01/20 08:54:21;;;;;;;15.52;6.55;;;2.70;91.60;;;;;;5029648;28;20784;-68
2023/01/20 08:56:51;;;;;;;12.43;5.28;;;2.80;91.60;;;;;;5032483;28;20484;-68
2023/01/20 08:59:17;;;;;;;11.40;4.00;;;2.80;91.60;;;;;;5031359;28;20038;-67
2023/01/20 09:01:43;;;;;;;11.05;5.32;;;2.90;91.50;;;;;;5027848;28;20080;-67
2023/01/20 09:04:09;;;;;;;20.05;7.85;;;2.90;91.50;;;;;;5025451;28;21853;-68
2023/01/20 09:06:44;;;;;;;12.93;5.25;;;2.90;91.40;;;;;;5022699;28;20101;-66
2023/01/20 09:09:11;;;;;;;20.50;6.63;;;2.90;91.50;;;;;;5027243;28;20037;-66
2023/01/20 09:11:38;;;;;;;18.08;5.78;;;2.90;91.50;;;;;;5019334;28;20525;-67
2023/01/20 09:14:04;;;;;;;12.35;5.03;;;2.90;91.50;;;;;;5023837;28;20036;-68
2023/01/20 09:16:29;;;;;;;17.55;5.90;;;2.90;91.50;;;;;;5020309;28;20614;-67
2023/01/20 09:18:55;;;;;;;15.55;5.57;;;2.80;91.60;;;;;;5028102;28;20033;-66
2023/01/20 09:21:20;;;;;;;11.52;4.35;;;2.90;91.60;;;;;;5025969;28;20018;-67
2023/01/20 09:23:47;;;;;;;11.05;4.93;;;2.90;91.60;;;;;;5022051;28;20026;-67
2023/01/20 09:26:13;;;;;;;9.55;4.13;;;2.90;91.50;;;;;;5019400;28;20095;-68
2023/01/20 09:28:38;;;;;;;10.82;4.28;;;3.00;91.60;;;;;;5023295;28;20026;-67
2023/01/20 09:31:07;;;;;;;9.65;4.25;;;3.00;91.50;;;;;;5026550;28;20029;-66
2023/01/20 09:33:35;;;;;;;6.65;3.22;;;3.10;91.50;;;;;;5026002;28;20033;-67
2023/01/20 09:36:01;;;;;;;11.07;4.43;;;3.10;91.50;;;;;;5022566;28;20034;-66
2023/01/20 09:44:30;;;;;;;8.73;3.38;;;3.10;91.40;;;;;;5029998;28;20037;-67
2023/01/20 09:47:18;;;;;;;16.83;6.80;;;3.10;91.40;;;;;;5031184;28;20029;-67
2023/01/20 09:53:03;;;;;;;13.55;4.60;;;3.00;91.40;;;;;;5020836;28;20037;-67
2023/01/20 09:55:49;;;;;;;9.98;3.33;;;3.10;91.50;;;;;;5015485;28;20166;-68
2023/01/20 09:58:45;;;;;;;6.38;2.70;;;3.00;91.50;;;;;;5029816;28;20025;-67
2023/01/20 10:01:32;;;;;;;9.60;3.67;;;3.10;91.50;;;;;;5023707;28;20018;-68
2023/01/20 10:04:19;;;;;;;7.63;4.10;;;3.10;91.40;;;;;;5021738;28;20021;-68
2023/01/20 10:06:47;;;;;;;7.68;3.10;;;3.10;91.40;;;;;;5023190;28;20034;-66
2023/01/20 10:09:39;;;;;;;10.93;4.47;;;3.10;91.50;;;;;;5028180;28;20038;-66
2023/01/20 10:12:28;;;;;;;13.68;5.95;;;3.10;91.50;;;;;;5024071;28;20049;-66
2023/01/20 10:15:06;;;;;;;13.85;5.28;;;3.10;91.40;;;;;;5027135;28;20029;-67
2023/01/20 10:17:40;;;;;;;8.63;3.50;;;3.10;91.40;;;;;;5033069;28;20029;-66
2023/01/20 10:20:26;;;;;;;7.53;2.80;;;3.10;91.40;;;;;;5023913;28;20033;-67
2023/01/20 10:23:06;;;;;;;6.90;2.85;;;3.10;91.40;;;;;;5026858;28;20112;-67
2023/01/20 10:25:39;;;;;;;7.38;3.40;;;3.10;91.50;;;;;;5033563;28;20022;-67
2023/01/20 10:28:10;;;;;;;7.88;3.60;;;3.00;91.40;;;;;;5027161;28;20021;-66
2023/01/20 10:30:37;;;;;;;10.98;3.30;;;3.00;91.50;;;;;;5022036;28;20088;-67
2023/01/20 10:33:10;;;;;;;6.13;2.90;;;3.00;91.60;;;;;;5022893;28;20036;-68
2023/01/20 10:35:58;;;;;;;9.38;2.75;;;3.00;91.60;;;;;;5024127;28;20033;-68
2023/01/20 10:38:34;;;;;;;12.23;4.80;;;3.00;91.60;;;;;;5026086;28;20486;-68
2023/01/20 10:41:10;;;;;;;13.48;5.55;;;3.00;91.70;;;;;;5025749;28;20022;-68
2023/01/20 10:43:36;;;;;;;11.20;4.85;;;2.90;91.70;;;;;;5021849;28;20017;-68
2023/01/20 10:46:23;;;;;;;9.82;3.85;;;2.90;91.80;;;;;;5019811;28;20027;-67
2023/01/20 10:49:20;;;;;;;11.45;4.32;;;2.90;91.90;;;;;;5020946;28;20075;-69
2023/01/20 10:52:14;;;;;;;10.88;4.43;;;3.00;91.80;;;;;;5025752;28;20040;-68
2023/01/20 10:55:05;;;;;;;10.30;3.13;;;3.10;91.70;;;;;;5024770;28;20035;-68
2023/01/20 10:57:32;;;;;;;6.32;2.95;;;3.10;91.60;;;;;;5027926;28;20064;-67
2023/01/20 11:00:12;;;;;;;15.48;6.00;;;3.20;91.60;;;;;;5026235;28;20029;-67
2023/01/20 11:02:40;;;;;;;8.10;3.00;;;3.20;91.60;;;;;;5027789;28;20453;-66
2023/01/20 11:05:16;;;;;;;7.95;3.65;;;3.40;91.60;;;;;;5025702;28;20518;-67
2023/01/20 11:07:44;;;;;;;8.65;3.45;;;3.30;91.60;;;;;;5024456;28;20102;-68
2023/01/20 11:10:19;;;;;;;9.18;4.20;;;3.40;91.50;;;;;;5026161;28;20630;-67
2023/01/20 11:12:49;;;;;;;11.98;4.18;;;3.40;91.50;;;;;;5026532;28;20033;-67
2023/01/20 11:15:22;;;;;;;12.32;4.00;;;3.40;91.50;;;;;;5024554;28;20044;-68
2023/01/20 11:18:12;;;;;;;7.78;2.72;;;3.40;91.40;;;;;;5021830;28;20167;-66
2023/01/20 11:20:44;;;;;;;6.40;2.67;;;3.50;91.50;;;;;;5023865;28;20103;-67
2023/01/20 11:23:38;;;;;;;7.23;3.30;;;3.60;91.40;;;;;;5023265;28;20025;-67
2023/01/20 11:26:25;;;;;;;12.40;4.35;;;3.50;91.30;;;;;;5022503;28;20042;-67
2023/01/20 11:29:01;;;;;;;10.38;4.13;;;3.60;91.40;;;;;;5024191;28;20108;-68
2023/01/20 11:31:39;;;;;;;11.00;3.63;;;3.60;91.40;;;;;;5022719;28;20037;-68
2023/01/20 11:34:16;;;;;;;15.88;7.13;;;3.60;91.30;;;;;;5024367;28;20484;-68
2023/01/20 11:36:42;;;;;;;7.72;3.53;;;3.60;91.30;;;;;;5027402;28;20109;-68
2023/01/20 11:39:29;;;;;;;8.93;3.15;;;3.60;91.30;;;;;;5029541;28;20116;-68
2023/01/20 11:42:16;;;;;;;9.35;4.50;;;3.60;91.20;;;;;;5029457;28;20064;-71
2023/01/20 11:45:00;;;;;;;8.90;4.00;;;3.50;91.30;;;;;;5027508;28;20022;-67
2023/01/20 11:47:35;;;;;;;8.85;3.30;;;3.50;91.40;;;;;;5028898;28;20111;-68
2023/01/20 11:50:03;;;;;;;10.10;4.13;;;3.60;91.40;;;;;;5027888;28;20100;-68
2023/01/20 11:52:37;;;;;;;6.45;2.92;;;3.60;91.40;;;;;;5030763;28;20045;-67
2023/01/20 11:55:07;;;;;;;10.05;3.78;;;3.50;91.40;;;;;;5029813;28;20022;-65
2023/01/20 11:57:33;;;;;;;6.57;3.53;;;3.50;91.40;;;;;;5030500;28;20476;-69
2023/01/20 11:59:59;;;;;;;16.58;5.25;;;3.40;91.50;;;;;;5025480;28;20028;-68
2023/01/20 12:02:27;;;;;;;9.48;4.43;;;3.40;91.60;;;;;;5029843;28;20017;-67
2023/01/20 12:05:27;;;;;;;12.02;5.03;;;3.40;91.70;;;;;;5030301;28;20096;-68
2023/01/20 12:07:55;;;;;;;10.88;4.38;;;3.30;91.80;;;;;;5028497;28;20124;-69
2023/01/20 12:10:33;;;;;;;10.15;3.97;;;3.40;91.90;;;;;;5027323;28;20038;-66
2023/01/20 12:13:23;;;;;;;10.95;4.90;;;3.30;91.80;;;;;;5027416;28;20042;-68
2023/01/20 12:15:55;;;;;;;10.50;4.55;;;3.30;91.90;;;;;;5029954;28;20069;-67
2023/01/20 12:18:34;;;;;;;9.83;4.10;;;3.30;92.00;;;;;;5028830;28;20029;-68
2023/01/20 12:21:17;;;;;;;10.77;4.53;;;3.30;92.00;;;;;;5029645;28;20013;-66
2023/01/20 12:24:03;;;;;;;10.32;3.80;;;3.30;92.00;;;;;;5027277;28;20025;-66
2023/01/20 12:26:34;;;;;;;13.80;4.82;;;3.30;92.00;;;;;;5028518;28;20461;-68
2023/01/20 12:29:05;;;;;;;7.38;3.65;;;3.30;92.00;;;;;;5029514;28;20123;-69
2023/01/20 12:31:31;;;;;;;17.43;7.10;;;3.30;92.00;;;;;;5029049;28;20029;-68
2023/01/20 12:34:03;;;;;;;9.32;4.30;;;3.30;92.00;;;;;;5030597;28;20288;-66
2023/01/20 12:36:45;;;;;;;10.90;3.85;;;3.30;92.00;;;;;;5029631;28;20032;-67
2023/01/20 12:39:32;;;;;;;7.40;3.55;;;3.20;92.10;;;;;;5032245;28;20472;-67
2023/01/20 12:42:09;;;;;;;5.28;2.90;;;3.20;92.10;;;;;;5029287;28;20053;-65
2023/01/20 12:44:50;;;;;;;7.28;3.20;;;3.30;92.10;;;;;;5030316;28;20026;-65
2023/01/20 12:47:30;;;;;;;6.43;3.00;;;3.40;92.10;;;;;;5028045;28;20471;-66
2023/01/20 12:50:08;;;;;;;8.45;3.15;;;3.50;92.00;;;;;;5020129;28;20021;-66
2023/01/20 12:53:05;;;;;;;7.60;3.58;;;3.40;91.90;;;;;;5024918;28;20034;-67
2023/01/20 12:56:00;;;;;;;6.45;2.53;;;3.40;92.00;;;;;;5023614;28;20042;-67
2023/01/20 12:58:46;;;;;;;4.97;2.17;;;3.50;92.00;;;;;;5022937;28;20029;-68
2023/01/20 13:01:33;;;;;;;5.78;3.00;;;3.60;91.90;;;;;;5028058;28;20055;-67
2023/01/20 13:04:24;;;;;;;6.60;3.35;;;3.60;91.80;;;;;;5027873;28;20021;-65
2023/01/20 13:07:04;;;;;;;10.60;4.57;;;3.60;91.80;;;;;;5024776;28;20108;-68
2023/01/20 13:10:02;;;;;;;6.55;3.45;;;3.60;91.80;;;;;;5025751;28;20117;-66
2023/01/20 13:12:55;;;;;;;4.30;2.15;;;3.60;91.80;;;;;;5025995;28;20033;-66
2023/01/20 13:15:24;;;;;;;;;;;3.70;91.70;;;;;;5030749;28;20037;-66
2023/01/20 13:18:22;;;;;;;6.13;2.80;;;3.60;91.60;;;;;;5028316;28;19916;-66
2023/01/20 13:20:48;;;;;;;4.45;2.17;;;3.50;91.60;;;;;;5022987;28;20535;-66
2023/01/20 13:23:19;;;;;;;5.10;2.38;;;3.60;91.70;;;;;;5031482;28;20022;-66